Airport View

Enter AWOS ICAO identifier for current METAR.

ex. KFNL

KLAW 221853Z 01013G20KT 10SM BKN040 31/19 A3012 RMK AO2 SLP186 T03110194

22 Jul 2019 19:12

Phone: 580-581-1351

Other Area AWOS: KFSI - KDUC - KFDR - KSPS

TAF KLAW 221720Z 2218/2318 02016G25KT P6SM SCT025 SCT150 FM230100 05011KT P6SM SKC FM231500 03015KT P6SM SKC